sensor_id;sensor_type;location;lat;lon;timestamp;temperature;humidity
75927;DHT22;64605;48.296;16.416;2023-06-22T00:02:08;22.80;99.90
75927;DHT22;64605;48.296;16.416;2023-06-22T00:04:34;22.90;99.90
75927;DHT22;64605;48.296;16.416;2023-06-22T00:07:00;22.90;99.90
75927;DHT22;64605;48.296;16.416;2023-06-22T00:09:25;23.00;99.90
75927;DHT22;64605;48.296;16.416;2023-06-22T00:11:51;22.90;99.90
75927;DHT22;64605;48.296;16.416;2023-06-22T00:14:16;22.80;99.90
75927;DHT22;64605;48.296;16.416;2023-06-22T00:16:42;22.70;99.90
75927;DHT22;64605;48.296;16.416;2023-06-22T00:19:08;22.70;99.90
75927;DHT22;64605;48.296;16.416;2023-06-22T00:21:37;22.60;99.90
75927;DHT22;64605;48.296;16.416;2023-06-22T00:24:04;22.60;99.90
75927;DHT22;64605;48.296;16.416;2023-06-22T00:26:29;22.60;99.90
75927;DHT22;64605;48.296;16.416;2023-06-22T00:28:55;22.50;99.90
75927;DHT22;64605;48.296;16.416;2023-06-22T00:31:21;22.50;99.90
75927;DHT22;64605;48.296;16.416;2023-06-22T00:33:46;22.50;99.90
75927;DHT22;64605;48.296;16.416;2023-06-22T00:36:13;22.40;99.90
75927;DHT22;64605;48.296;16.416;2023-06-22T00:38:41;22.40;99.90
75927;DHT22;64605;48.296;16.416;2023-06-22T00:41:07;22.30;99.90
75927;DHT22;64605;48.296;16.416;2023-06-22T00:43:33;22.30;99.90
75927;DHT22;64605;48.296;16.416;2023-06-22T00:45:58;22.20;99.90
75927;DHT22;64605;48.296;16.416;2023-06-22T00:48:24;22.20;99.90
75927;DHT22;64605;48.296;16.416;2023-06-22T00:50:50;22.20;99.90
75927;DHT22;64605;48.296;16.416;2023-06-22T00:53:19;22.10;99.90
75927;DHT22;64605;48.296;16.416;2023-06-22T00:55:45;22.10;99.90
75927;DHT22;64605;48.296;16.416;2023-06-22T00:58:13;22.10;99.90
75927;DHT22;64605;48.296;16.416;2023-06-22T01:00:39;22.00;99.90
75927;DHT22;64605;48.296;16.416;2023-06-22T01:03:06;22.00;99.90
75927;DHT22;64605;48.296;16.416;2023-06-22T01:05:36;22.00;99.90
75927;DHT22;64605;48.296;16.416;2023-06-22T01:08:27;22.00;99.90
75927;DHT22;64605;48.296;16.416;2023-06-22T01:11:20;21.90;99.90
75927;DHT22;64605;48.296;16.416;2023-06-22T01:16:33;21.90;99.90
75927;DHT22;64605;48.296;16.416;2023-06-22T01:19:03;21.80;99.90
75927;DHT22;64605;48.296;16.416;2023-06-22T01:21:31;21.80;99.90
75927;DHT22;64605;48.296;16.416;2023-06-22T01:24:18;21.80;99.90
75927;DHT22;64605;48.296;16.416;2023-06-22T01:29:19;21.80;99.90
75927;DHT22;64605;48.296;16.416;2023-06-22T01:31:45;21.70;99.90
75927;DHT22;64605;48.296;16.416;2023-06-22T01:34:14;21.70;99.90
75927;DHT22;64605;48.296;16.416;2023-06-22T01:36:40;21.70;99.90
75927;DHT22;64605;48.296;16.416;2023-06-22T01:39:07;21.70;99.90
75927;DHT22;64605;48.296;16.416;2023-06-22T01:41:36;21.70;99.90
75927;DHT22;64605;48.296;16.416;2023-06-22T01:44:07;21.70;99.90
75927;DHT22;64605;48.296;16.416;2023-06-22T01:46:35;21.60;99.90
75927;DHT22;64605;48.296;16.416;2023-06-22T01:49:02;21.60;99.90
75927;DHT22;64605;48.296;16.416;2023-06-22T01:51:29;21.60;99.90
75927;DHT22;64605;48.296;16.416;2023-06-22T01:53:55;21.60;99.90
75927;DHT22;64605;48.296;16.416;2023-06-22T01:56:21;21.60;99.90
75927;DHT22;64605;48.296;16.416;2023-06-22T01:58:54;21.60;99.90
75927;DHT22;64605;48.296;16.416;2023-06-22T02:01:31;21.60;99.90
75927;DHT22;64605;48.296;16.416;2023-06-22T02:04:06;21.60;99.90
75927;DHT22;64605;48.296;16.416;2023-06-22T02:06:36;21.50;99.90
75927;DHT22;64605;48.296;16.416;2023-06-22T02:09:08;21.50;99.90
75927;DHT22;64605;48.296;16.416;2023-06-22T02:11:37;21.50;99.90
75927;DHT22;64605;48.296;16.416;2023-06-22T02:14:02;21.50;99.90
75927;DHT22;64605;48.296;16.416;2023-06-22T02:16:31;21.50;99.90
75927;DHT22;64605;48.296;16.416;2023-06-22T02:18:57;21.40;99.90
75927;DHT22;64605;48.296;16.416;2023-06-22T02:21:28;21.40;99.90
75927;DHT22;64605;48.296;16.416;2023-06-22T02:23:54;21.40;99.90
75927;DHT22;64605;48.296;16.416;2023-06-22T02:26:20;21.40;99.90
75927;DHT22;64605;48.296;16.416;2023-06-22T02:28:46;21.30;99.90
75927;DHT22;64605;48.296;16.416;2023-06-22T02:31:11;21.40;99.90
75927;DHT22;64605;48.296;16.416;2023-06-22T02:33:37;21.30;99.90
75927;DHT22;64605;48.296;16.416;2023-06-22T02:36:03;21.30;99.90
75927;DHT22;64605;48.296;16.416;2023-06-22T02:38:31;21.30;99.90
75927;DHT22;64605;48.296;16.416;2023-06-22T02:40:58;21.30;99.90
75927;DHT22;64605;48.296;16.416;2023-06-22T02:43:24;21.20;99.90
75927;DHT22;64605;48.296;16.416;2023-06-22T02:45:50;21.20;99.90
75927;DHT22;64605;48.296;16.416;2023-06-22T02:48:15;21.20;99.90
75927;DHT22;64605;48.296;16.416;2023-06-22T02:50:41;21.20;99.90
75927;DHT22;64605;48.296;16.416;2023-06-22T02:53:07;21.20;99.90
75927;DHT22;64605;48.296;16.416;2023-06-22T02:55:32;21.20;99.90
75927;DHT22;64605;48.296;16.416;2023-06-22T02:57:58;21.20;99.90
75927;DHT22;64605;48.296;16.416;2023-06-22T03:00:25;21.20;99.90
75927;DHT22;64605;48.296;16.416;2023-06-22T03:02:55;21.20;99.90
75927;DHT22;64605;48.296;16.416;2023-06-22T03:05:21;21.20;99.90
75927;DHT22;64605;48.296;16.416;2023-06-22T03:07:47;21.20;99.90
75927;DHT22;64605;48.296;16.416;2023-06-22T03:10:14;21.20;99.90
75927;DHT22;64605;48.296;16.416;2023-06-22T03:12:40;21.20;99.90
75927;DHT22;64605;48.296;16.416;2023-06-22T03:15:10;21.20;99.90
75927;DHT22;64605;48.296;16.416;2023-06-22T03:17:37;21.20;99.90
75927;DHT22;64605;48.296;16.416;2023-06-22T03:20:04;21.20;99.90
75927;DHT22;64605;48.296;16.416;2023-06-22T03:22:35;21.30;99.90
75927;DHT22;64605;48.296;16.416;2023-06-22T03:25:01;21.30;99.90
75927;DHT22;64605;48.296;16.416;2023-06-22T03:27:27;21.30;99.90
75927;DHT22;64605;48.296;16.416;2023-06-22T03:29:52;21.30;99.90
75927;DHT22;64605;48.296;16.416;2023-06-22T03:32:18;21.30;99.90
75927;DHT22;64605;48.296;16.416;2023-06-22T03:34:44;21.30;99.90
75927;DHT22;64605;48.296;16.416;2023-06-22T03:37:13;21.40;99.90
75927;DHT22;64605;48.296;16.416;2023-06-22T03:39:40;21.40;99.90
75927;DHT22;64605;48.296;16.416;2023-06-22T03:42:06;21.40;99.90
75927;DHT22;64605;48.296;16.416;2023-06-22T03:44:31;21.50;99.90
75927;DHT22;64605;48.296;16.416;2023-06-22T03:46:57;21.50;99.90
75927;DHT22;64605;48.296;16.416;2023-06-22T03:49:23;21.60;99.90
75927;DHT22;64605;48.296;16.416;2023-06-22T03:51:48;21.60;99.90
75927;DHT22;64605;48.296;16.416;2023-06-22T03:54:14;21.70;99.90
75927;DHT22;64605;48.296;16.416;2023-06-22T03:56:40;21.80;99.90
75927;DHT22;64605;48.296;16.416;2023-06-22T03:59:05;21.80;99.90
75927;DHT22;64605;48.296;16.416;2023-06-22T04:01:31;21.90;99.90
75927;DHT22;64605;48.296;16.416;2023-06-22T04:03:57;22.00;99.90
75927;DHT22;64605;48.296;16.416;2023-06-22T04:06:22;22.10;99.90
75927;DHT22;64605;48.296;16.416;2023-06-22T04:08:48;22.20;99.90
75927;DHT22;64605;48.296;16.416;2023-06-22T04:11:17;22.30;99.90
75927;DHT22;64605;48.296;16.416;2023-06-22T04:13:43;22.40;99.90
75927;DHT22;64605;48.296;16.416;2023-06-22T04:16:09;22.40;99.90
75927;DHT22;64605;48.296;16.416;2023-06-22T04:18:35;22.50;99.90
75927;DHT22;64605;48.296;16.416;2023-06-22T04:21:01;22.60;99.90
75927;DHT22;64605;48.296;16.416;2023-06-22T04:23:27;22.70;99.90
75927;DHT22;64605;48.296;16.416;2023-06-22T04:25:53;22.70;99.90
75927;DHT22;64605;48.296;16.416;2023-06-22T04:28:18;22.80;99.90
75927;DHT22;64605;48.296;16.416;2023-06-22T04:30:44;22.90;99.90
75927;DHT22;64605;48.296;16.416;2023-06-22T04:33:15;23.00;99.90
75927;DHT22;64605;48.296;16.416;2023-06-22T04:35:42;23.20;99.90
75927;DHT22;64605;48.296;16.416;2023-06-22T04:38:11;23.10;99.90
75927;DHT22;64605;48.296;16.416;2023-06-22T04:40:39;23.20;99.90
75927;DHT22;64605;48.296;16.416;2023-06-22T04:43:04;23.40;99.90
75927;DHT22;64605;48.296;16.416;2023-06-22T04:45:32;23.60;99.90
75927;DHT22;64605;48.296;16.416;2023-06-22T04:47:58;23.70;99.90
75927;DHT22;64605;48.296;16.416;2023-06-22T04:50:23;23.90;99.90
75927;DHT22;64605;48.296;16.416;2023-06-22T04:52:50;24.00;99.90
75927;DHT22;64605;48.296;16.416;2023-06-22T04:55:16;24.20;99.90
75927;DHT22;64605;48.296;16.416;2023-06-22T04:57:45;24.40;99.90
75927;DHT22;64605;48.296;16.416;2023-06-22T05:00:18;24.50;99.90
75927;DHT22;64605;48.296;16.416;2023-06-22T05:02:45;24.70;99.90
75927;DHT22;64605;48.296;16.416;2023-06-22T05:05:12;24.80;99.90
75927;DHT22;64605;48.296;16.416;2023-06-22T05:07:46;25.00;99.90
75927;DHT22;64605;48.296;16.416;2023-06-22T05:10:14;25.10;99.90
75927;DHT22;64605;48.296;16.416;2023-06-22T05:12:40;25.20;99.90
75927;DHT22;64605;48.296;16.416;2023-06-22T05:15:08;25.40;99.90
75927;DHT22;64605;48.296;16.416;2023-06-22T05:17:35;25.80;99.90
75927;DHT22;64605;48.296;16.416;2023-06-22T05:20:01;26.60;99.90
75927;DHT22;64605;48.296;16.416;2023-06-22T05:22:27;27.60;99.90
75927;DHT22;64605;48.296;16.416;2023-06-22T05:24:53;28.60;99.90
75927;DHT22;64605;48.296;16.416;2023-06-22T05:27:19;29.60;99.90
75927;DHT22;64605;48.296;16.416;2023-06-22T05:29:46;30.30;99.90
75927;DHT22;64605;48.296;16.416;2023-06-22T05:32:11;30.80;99.90
75927;DHT22;64605;48.296;16.416;2023-06-22T05:34:38;31.00;99.90
75927;DHT22;64605;48.296;16.416;2023-06-22T05:37:04;31.10;99.90
75927;DHT22;64605;48.296;16.416;2023-06-22T05:39:31;31.50;99.90
75927;DHT22;64605;48.296;16.416;2023-06-22T05:41:57;32.20;99.90
75927;DHT22;64605;48.296;16.416;2023-06-22T05:44:22;32.70;99.90
75927;DHT22;64605;48.296;16.416;2023-06-22T05:46:48;33.30;99.90
75927;DHT22;64605;48.296;16.416;2023-06-22T05:49:14;33.70;99.90
75927;DHT22;64605;48.296;16.416;2023-06-22T05:51:40;33.80;99.90
75927;DHT22;64605;48.296;16.416;2023-06-22T05:54:06;33.50;99.90
75927;DHT22;64605;48.296;16.416;2023-06-22T05:56:33;33.10;99.90
75927;DHT22;64605;48.296;16.416;2023-06-22T05:58:59;32.80;99.90
75927;DHT22;64605;48.296;16.416;2023-06-22T06:01:24;32.60;99.90
75927;DHT22;64605;48.296;16.416;2023-06-22T06:03:52;32.00;99.90
75927;DHT22;64605;48.296;16.416;2023-06-22T06:06:18;31.80;99.90
75927;DHT22;64605;48.296;16.416;2023-06-22T06:08:46;32.00;99.90
75927;DHT22;64605;48.296;16.416;2023-06-22T06:11:12;32.00;99.90
75927;DHT22;64605;48.296;16.416;2023-06-22T06:13:37;32.00;99.90
75927;DHT22;64605;48.296;16.416;2023-06-22T06:16:03;32.00;99.90
75927;DHT22;64605;48.296;16.416;2023-06-22T06:18:29;31.70;99.90
75927;DHT22;64605;48.296;16.416;2023-06-22T06:20:54;31.60;99.90
75927;DHT22;64605;48.296;16.416;2023-06-22T06:23:20;31.90;99.90
75927;DHT22;64605;48.296;16.416;2023-06-22T06:25:46;31.90;99.90
75927;DHT22;64605;48.296;16.416;2023-06-22T06:28:11;31.90;99.90
75927;DHT22;64605;48.296;16.416;2023-06-22T06:30:37;32.10;99.90
75927;DHT22;64605;48.296;16.416;2023-06-22T06:33:03;32.60;99.90
75927;DHT22;64605;48.296;16.416;2023-06-22T06:35:34;32.50;98.20
75927;DHT22;64605;48.296;16.416;2023-06-22T06:38:00;32.30;94.00
75927;DHT22;64605;48.296;16.416;2023-06-22T06:40:25;32.20;94.00
75927;DHT22;64605;48.296;16.416;2023-06-22T06:42:51;32.20;92.00
75927;DHT22;64605;48.296;16.416;2023-06-22T06:45:23;32.30;86.70
75927;DHT22;64605;48.296;16.416;2023-06-22T06:47:50;32.30;78.70
75927;DHT22;64605;48.296;16.416;2023-06-22T06:50:16;32.40;85.40
75927;DHT22;64605;48.296;16.416;2023-06-22T06:52:42;32.60;80.20
75927;DHT22;64605;48.296;16.416;2023-06-22T06:55:08;32.80;75.90
75927;DHT22;64605;48.296;16.416;2023-06-22T06:57:37;33.00;66.10
75927;DHT22;64605;48.296;16.416;2023-06-22T07:00:08;33.20;68.90
75927;DHT22;64605;48.296;16.416;2023-06-22T07:02:39;33.50;63.30
75927;DHT22;64605;48.296;16.416;2023-06-22T07:05:09;33.90;59.70
75927;DHT22;64605;48.296;16.416;2023-06-22T07:07:35;34.40;59.20
75927;DHT22;64605;48.296;16.416;2023-06-22T07:10:00;35.40;60.10
75927;DHT22;64605;48.296;16.416;2023-06-22T07:12:26;37.00;53.90
75927;DHT22;64605;48.296;16.416;2023-06-22T07:14:52;38.20;48.60
75927;DHT22;64605;48.296;16.416;2023-06-22T07:17:18;39.40;46.20
75927;DHT22;64605;48.296;16.416;2023-06-22T07:19:45;40.90;46.50
75927;DHT22;64605;48.296;16.416;2023-06-22T07:22:11;42.00;42.80
75927;DHT22;64605;48.296;16.416;2023-06-22T07:24:36;43.10;40.30
75927;DHT22;64605;48.296;16.416;2023-06-22T07:27:03;44.10;36.40
75927;DHT22;64605;48.296;16.416;2023-06-22T07:29:29;44.70;33.80
75927;DHT22;64605;48.296;16.416;2023-06-22T07:31:55;45.00;32.90
75927;DHT22;64605;48.296;16.416;2023-06-22T07:34:22;45.50;34.10
75927;DHT22;64605;48.296;16.416;2023-06-22T07:36:47;46.50;30.40
75927;DHT22;64605;48.296;16.416;2023-06-22T07:39:13;46.70;30.50
75927;DHT22;64605;48.296;16.416;2023-06-22T07:41:40;47.20;30.00
75927;DHT22;64605;48.296;16.416;2023-06-22T07:44:08;47.60;30.60
75927;DHT22;64605;48.296;16.416;2023-06-22T07:46:34;47.90;28.80
75927;DHT22;64605;48.296;16.416;2023-06-22T07:49:00;47.90;29.50
75927;DHT22;64605;48.296;16.416;2023-06-22T07:51:26;47.90;27.90
75927;DHT22;64605;48.296;16.416;2023-06-22T07:53:52;48.50;28.80
75927;DHT22;64605;48.296;16.416;2023-06-22T07:56:18;49.20;27.10
75927;DHT22;64605;48.296;16.416;2023-06-22T07:58:47;49.60;27.20
75927;DHT22;64605;48.296;16.416;2023-06-22T08:01:15;50.00;26.20
75927;DHT22;64605;48.296;16.416;2023-06-22T08:03:42;50.20;23.70
75927;DHT22;64605;48.296;16.416;2023-06-22T08:06:08;49.70;24.00
75927;DHT22;64605;48.296;16.416;2023-06-22T08:08:37;49.50;26.20
75927;DHT22;64605;48.296;16.416;2023-06-22T08:11:03;50.00;26.80
75927;DHT22;64605;48.296;16.416;2023-06-22T08:13:29;50.70;25.30
75927;DHT22;64605;48.296;16.416;2023-06-22T08:15:55;50.90;24.60
75927;DHT22;64605;48.296;16.416;2023-06-22T08:18:20;51.10;24.70
75927;DHT22;64605;48.296;16.416;2023-06-22T08:20:46;50.60;24.80
75927;DHT22;64605;48.296;16.416;2023-06-22T08:23:12;50.70;23.90
75927;DHT22;64605;48.296;16.416;2023-06-22T08:25:37;51.00;24.80
75927;DHT22;64605;48.296;16.416;2023-06-22T08:28:03;51.20;23.90
75927;DHT22;64605;48.296;16.416;2023-06-22T08:30:29;51.50;24.00
75927;DHT22;64605;48.296;16.416;2023-06-22T08:32:55;51.90;22.80
75927;DHT22;64605;48.296;16.416;2023-06-22T08:35:24;51.70;22.50
75927;DHT22;64605;48.296;16.416;2023-06-22T08:37:50;52.00;23.40
75927;DHT22;64605;48.296;16.416;2023-06-22T08:40:18;52.40;22.70
75927;DHT22;64605;48.296;16.416;2023-06-22T08:42:45;52.60;21.80
75927;DHT22;64605;48.296;16.416;2023-06-22T08:45:12;53.00;22.80
75927;DHT22;64605;48.296;16.416;2023-06-22T08:47:38;52.90;21.50
75927;DHT22;64605;48.296;16.416;2023-06-22T08:50:05;53.20;22.60
75927;DHT22;64605;48.296;16.416;2023-06-22T08:52:32;53.40;23.10
75927;DHT22;64605;48.296;16.416;2023-06-22T08:54:57;53.10;22.40
75927;DHT22;64605;48.296;16.416;2023-06-22T08:57:27;53.40;21.20
75927;DHT22;64605;48.296;16.416;2023-06-22T08:59:52;53.80;21.40
75927;DHT22;64605;48.296;16.416;2023-06-22T09:02:18;54.40;21.70
75927;DHT22;64605;48.296;16.416;2023-06-22T09:04:46;54.40;20.20
75927;DHT22;64605;48.296;16.416;2023-06-22T09:07:11;54.80;21.00
75927;DHT22;64605;48.296;16.416;2023-06-22T09:09:37;55.10;19.90
75927;DHT22;64605;48.296;16.416;2023-06-22T09:12:03;54.80;19.10
75927;DHT22;64605;48.296;16.416;2023-06-22T09:14:29;55.10;19.50
75927;DHT22;64605;48.296;16.416;2023-06-22T09:16:55;55.10;19.00
75927;DHT22;64605;48.296;16.416;2023-06-22T09:19:20;55.30;19.70
75927;DHT22;64605;48.296;16.416;2023-06-22T09:21:46;56.20;19.90
75927;DHT22;64605;48.296;16.416;2023-06-22T09:24:11;56.50;18.30
75927;DHT22;64605;48.296;16.416;2023-06-22T09:26:37;57.30;19.30
75927;DHT22;64605;48.296;16.416;2023-06-22T09:29:05;58.90;18.50
75927;DHT22;64605;48.296;16.416;2023-06-22T09:31:31;59.60;17.40
75927;DHT22;64605;48.296;16.416;2023-06-22T09:33:56;60.30;16.30
75927;DHT22;64605;48.296;16.416;2023-06-22T09:36:22;60.70;16.80
75927;DHT22;64605;48.296;16.416;2023-06-22T09:38:49;61.20;16.20
75927;DHT22;64605;48.296;16.416;2023-06-22T09:41:20;62.00;16.50
75927;DHT22;64605;48.296;16.416;2023-06-22T09:43:46;62.30;14.40
75927;DHT22;64605;48.296;16.416;2023-06-22T09:46:11;61.30;16.10
75927;DHT22;64605;48.296;16.416;2023-06-22T09:48:37;61.50;15.00
75927;DHT22;64605;48.296;16.416;2023-06-22T09:51:03;61.60;15.80
75927;DHT22;64605;48.296;16.416;2023-06-22T09:53:28;62.60;16.40
75927;DHT22;64605;48.296;16.416;2023-06-22T09:55:54;62.70;14.80
75927;DHT22;64605;48.296;16.416;2023-06-22T09:58:20;62.50;14.40
75927;DHT22;64605;48.296;16.416;2023-06-22T10:00:45;62.30;14.20
75927;DHT22;64605;48.296;16.416;2023-06-22T10:03:11;62.00;14.20
75927;DHT22;64605;48.296;16.416;2023-06-22T10:05:37;61.70;14.10
75927;DHT22;64605;48.296;16.416;2023-06-22T10:08:02;62.20;13.50
75927;DHT22;64605;48.296;16.416;2023-06-22T10:10:28;61.10;12.20
75927;DHT22;64605;48.296;16.416;2023-06-22T10:13:01;62.00;11.40
75927;DHT22;64605;48.296;16.416;2023-06-22T10:15:28;62.30;11.50
75927;DHT22;64605;48.296;16.416;2023-06-22T10:17:53;63.00;11.50
75927;DHT22;64605;48.296;16.416;2023-06-22T10:20:19;62.60;10.50
75927;DHT22;64605;48.296;16.416;2023-06-22T10:22:46;60.60;10.50
75927;DHT22;64605;48.296;16.416;2023-06-22T10:25:12;60.10;11.10
75927;DHT22;64605;48.296;16.416;2023-06-22T10:27:38;59.60;11.00
75927;DHT22;64605;48.296;16.416;2023-06-22T10:30:08;59.00;11.70
75927;DHT22;64605;48.296;16.416;2023-06-22T10:32:34;58.40;12.00
75927;DHT22;64605;48.296;16.416;2023-06-22T10:35:00;57.40;12.30
75927;DHT22;64605;48.296;16.416;2023-06-22T10:37:25;57.20;12.90
75927;DHT22;64605;48.296;16.416;2023-06-22T10:39:51;56.10;12.90
75927;DHT22;64605;48.296;16.416;2023-06-22T10:42:17;55.40;13.40
75927;DHT22;64605;48.296;16.416;2023-06-22T10:44:42;55.60;13.80
75927;DHT22;64605;48.296;16.416;2023-06-22T10:47:10;55.50;13.70
75927;DHT22;64605;48.296;16.416;2023-06-22T10:49:38;55.50;13.70
75927;DHT22;64605;48.296;16.416;2023-06-22T10:52:04;55.60;13.60
75927;DHT22;64605;48.296;16.416;2023-06-22T10:54:30;55.50;13.40
75927;DHT22;64605;48.296;16.416;2023-06-22T10:56:55;55.40;13.30
75927;DHT22;64605;48.296;16.416;2023-06-22T10:59:21;55.20;13.40
75927;DHT22;64605;48.296;16.416;2023-06-22T11:01:49;54.40;13.40
75927;DHT22;64605;48.296;16.416;2023-06-22T11:04:14;53.80;13.90
75927;DHT22;64605;48.296;16.416;2023-06-22T11:06:40;54.10;14.40
75927;DHT22;64605;48.296;16.416;2023-06-22T11:09:06;53.70;14.00
75927;DHT22;64605;48.296;16.416;2023-06-22T11:11:31;52.60;14.80
75927;DHT22;64605;48.296;16.416;2023-06-22T11:13:57;50.20;14.90
75927;DHT22;64605;48.296;16.416;2023-06-22T11:16:22;47.30;16.60
75927;DHT22;64605;48.296;16.416;2023-06-22T11:18:48;44.80;18.90
75927;DHT22;64605;48.296;16.416;2023-06-22T11:21:14;43.00;20.90
75927;DHT22;64605;48.296;16.416;2023-06-22T11:23:41;41.90;21.90
75927;DHT22;64605;48.296;16.416;2023-06-22T11:26:07;41.30;22.70
75927;DHT22;64605;48.296;16.416;2023-06-22T11:28:32;40.60;23.30
75927;DHT22;64605;48.296;16.416;2023-06-22T11:30:58;39.90;23.90
75927;DHT22;64605;48.296;16.416;2023-06-22T11:33:24;39.50;24.60
75927;DHT22;64605;48.296;16.416;2023-06-22T11:35:50;38.90;25.70
75927;DHT22;64605;48.296;16.416;2023-06-22T11:38:15;38.30;26.50
75927;DHT22;64605;48.296;16.416;2023-06-22T11:40:41;37.90;28.10
75927;DHT22;64605;48.296;16.416;2023-06-22T11:43:06;37.50;27.80
75927;DHT22;64605;48.296;16.416;2023-06-22T11:45:32;37.30;28.60
75927;DHT22;64605;48.296;16.416;2023-06-22T11:47:58;37.00;29.50
75927;DHT22;64605;48.296;16.416;2023-06-22T11:50:24;36.80;29.00
75927;DHT22;64605;48.296;16.416;2023-06-22T11:52:49;36.70;28.80
75927;DHT22;64605;48.296;16.416;2023-06-22T11:55:15;36.50;29.30
75927;DHT22;64605;48.296;16.416;2023-06-22T11:57:54;36.40;29.20
75927;DHT22;64605;48.296;16.416;2023-06-22T12:00:20;36.40;29.60
75927;DHT22;64605;48.296;16.416;2023-06-22T12:02:46;36.40;29.80
75927;DHT22;64605;48.296;16.416;2023-06-22T12:05:11;36.40;30.20
75927;DHT22;64605;48.296;16.416;2023-06-22T12:07:37;36.30;30.00
75927;DHT22;64605;48.296;16.416;2023-06-22T12:10:03;36.50;30.30
75927;DHT22;64605;48.296;16.416;2023-06-22T12:12:29;36.50;30.20
75927;DHT22;64605;48.296;16.416;2023-06-22T12:14:55;36.30;30.30
75927;DHT22;64605;48.296;16.416;2023-06-22T12:17:20;36.50;31.20
75927;DHT22;64605;48.296;16.416;2023-06-22T12:19:46;36.60;30.10
75927;DHT22;64605;48.296;16.416;2023-06-22T12:22:12;36.30;30.50
75927;DHT22;64605;48.296;16.416;2023-06-22T12:24:37;36.20;30.60
75927;DHT22;64605;48.296;16.416;2023-06-22T12:27:03;36.20;31.30
75927;DHT22;64605;48.296;16.416;2023-06-22T12:29:29;36.30;30.90
75927;DHT22;64605;48.296;16.416;2023-06-22T12:31:55;36.20;31.10
75927;DHT22;64605;48.296;16.416;2023-06-22T12:34:20;36.00;32.10
75927;DHT22;64605;48.296;16.416;2023-06-22T12:36:46;35.90;31.90
75927;DHT22;64605;48.296;16.416;2023-06-22T12:39:14;35.80;31.80
75927;DHT22;64605;48.296;16.416;2023-06-22T12:41:39;35.90;31.70
75927;DHT22;64605;48.296;16.416;2023-06-22T12:44:05;35.70;32.00
75927;DHT22;64605;48.296;16.416;2023-06-22T12:46:31;35.70;32.30
75927;DHT22;64605;48.296;16.416;2023-06-22T12:49:03;35.80;32.10
75927;DHT22;64605;48.296;16.416;2023-06-22T12:51:29;35.90;31.70
75927;DHT22;64605;48.296;16.416;2023-06-22T12:53:55;35.70;31.30
75927;DHT22;64605;48.296;16.416;2023-06-22T12:56:21;35.60;31.80
75927;DHT22;64605;48.296;16.416;2023-06-22T12:58:47;35.60;32.30
75927;DHT22;64605;48.296;16.416;2023-06-22T13:01:12;35.40;32.50
75927;DHT22;64605;48.296;16.416;2023-06-22T13:03:38;35.30;33.10
75927;DHT22;64605;48.296;16.416;2023-06-22T13:06:04;35.40;33.50
75927;DHT22;64605;48.296;16.416;2023-06-22T13:08:29;35.50;33.20
75927;DHT22;64605;48.296;16.416;2023-06-22T13:10:55;35.30;33.50
75927;DHT22;64605;48.296;16.416;2023-06-22T13:13:25;35.40;33.90
75927;DHT22;64605;48.296;16.416;2023-06-22T13:15:51;35.20;33.80
75927;DHT22;64605;48.296;16.416;2023-06-22T13:18:18;35.30;34.30
75927;DHT22;64605;48.296;16.416;2023-06-22T13:20:43;35.20;34.50
75927;DHT22;64605;48.296;16.416;2023-06-22T13:23:11;35.10;34.90
75927;DHT22;64605;48.296;16.416;2023-06-22T13:25:36;35.00;34.20
75927;DHT22;64605;48.296;16.416;2023-06-22T13:28:02;35.10;34.50
75927;DHT22;64605;48.296;16.416;2023-06-22T13:30:28;35.00;34.70
75927;DHT22;64605;48.296;16.416;2023-06-22T13:32:54;34.80;34.90
75927;DHT22;64605;48.296;16.416;2023-06-22T13:35:20;34.60;35.80
75927;DHT22;64605;48.296;16.416;2023-06-22T13:37:45;34.40;35.70
75927;DHT22;64605;48.296;16.416;2023-06-22T13:40:11;34.30;36.10
75927;DHT22;64605;48.296;16.416;2023-06-22T13:42:37;34.20;36.30
75927;DHT22;64605;48.296;16.416;2023-06-22T13:45:03;34.30;36.30
75927;DHT22;64605;48.296;16.416;2023-06-22T13:47:30;34.20;36.70
75927;DHT22;64605;48.296;16.416;2023-06-22T13:49:56;34.20;36.80
75927;DHT22;64605;48.296;16.416;2023-06-22T13:52:23;34.30;37.50
75927;DHT22;64605;48.296;16.416;2023-06-22T13:54:48;34.40;37.20
75927;DHT22;64605;48.296;16.416;2023-06-22T13:57:14;34.40;36.30
75927;DHT22;64605;48.296;16.416;2023-06-22T13:59:40;34.20;36.80
75927;DHT22;64605;48.296;16.416;2023-06-22T14:02:06;34.10;37.10
75927;DHT22;64605;48.296;16.416;2023-06-22T14:04:32;34.10;37.60
75927;DHT22;64605;48.296;16.416;2023-06-22T14:06:58;34.00;37.80
75927;DHT22;64605;48.296;16.416;2023-06-22T14:09:24;34.10;37.30
75927;DHT22;64605;48.296;16.416;2023-06-22T14:11:49;34.00;37.70
75927;DHT22;64605;48.296;16.416;2023-06-22T14:14:15;33.90;37.70
75927;DHT22;64605;48.296;16.416;2023-06-22T14:16:41;33.90;37.80
75927;DHT22;64605;48.296;16.416;2023-06-22T14:19:06;33.70;37.90
75927;DHT22;64605;48.296;16.416;2023-06-22T14:21:32;33.80;38.30
75927;DHT22;64605;48.296;16.416;2023-06-22T14:23:57;33.90;38.40
75927;DHT22;64605;48.296;16.416;2023-06-22T14:26:23;33.90;38.40
75927;DHT22;64605;48.296;16.416;2023-06-22T14:28:49;33.80;39.10
75927;DHT22;64605;48.296;16.416;2023-06-22T14:31:18;33.80;38.40
75927;DHT22;64605;48.296;16.416;2023-06-22T14:33:47;33.80;38.50
75927;DHT22;64605;48.296;16.416;2023-06-22T14:36:13;33.80;38.90
75927;DHT22;64605;48.296;16.416;2023-06-22T14:38:39;33.90;38.90
75927;DHT22;64605;48.296;16.416;2023-06-22T14:41:05;33.80;39.40
75927;DHT22;64605;48.296;16.416;2023-06-22T14:43:30;33.70;39.20
75927;DHT22;64605;48.296;16.416;2023-06-22T14:45:56;33.60;39.50
75927;DHT22;64605;48.296;16.416;2023-06-22T14:48:22;33.50;39.40
75927;DHT22;64605;48.296;16.416;2023-06-22T14:50:48;33.50;39.70
75927;DHT22;64605;48.296;16.416;2023-06-22T14:53:13;33.50;39.90
75927;DHT22;64605;48.296;16.416;2023-06-22T14:55:40;33.30;40.20
75927;DHT22;64605;48.296;16.416;2023-06-22T14:58:06;33.30;40.40
75927;DHT22;64605;48.296;16.416;2023-06-22T15:00:32;33.20;40.60
75927;DHT22;64605;48.296;16.416;2023-06-22T15:02:58;33.30;40.80
75927;DHT22;64605;48.296;16.416;2023-06-22T15:05:25;33.30;40.40
75927;DHT22;64605;48.296;16.416;2023-06-22T15:07:51;33.40;40.50
75927;DHT22;64605;48.296;16.416;2023-06-22T15:10:16;33.40;40.60
75927;DHT22;64605;48.296;16.416;2023-06-22T15:12:42;33.60;40.60
75927;DHT22;64605;48.296;16.416;2023-06-22T15:15:08;33.50;40.60
75927;DHT22;64605;48.296;16.416;2023-06-22T15:17:34;33.70;40.30